Mn Pelican — FMLR — position and weather

sailwx.info

Track history (hours):
 
Tides and Currents Weather Stations Pressure Air Temp Water Temp Dewpoint Dewpoint Depression Visibility Wind Speed Wind Dir Waves Ship Positions

Mn Pelican

Last reported at 2017-Aug-19 22:30 UTC. Time now 2017-Aug-19 22:35 UTC.
Position N 49°56' W 003°27'.

Length 155 m; draft 6.3 m.

Type: Ship. MMSI: 228315700.

Date/timePositionNaut miles runAvg speedWind from/ knotsBaromVisibWave heightAir tempDewpointWater temp
2017-Aug-19 22:30N 49°56' W 003°27'815.3
2017-Aug-19 22:00N 50°00' W 003°18'815.0
2017-Aug-19 21:30N 50°04' W 003°08'714.4
2017-Aug-19 21:00N 50°08' W 002°58'713.8
2017-Aug-19 20:30N 50°11' W 002°49'713.3
2017-Aug-19 20:00N 50°14' W 002°39'612.6
2017-Aug-19 19:30N 50°18' W 002°31'2711.3
2017-Aug-19 17:04N 50°33' W 001°55'111.6
2017-Aug-19 17:00N 50°34' W 001°54'510.4
2017-Aug-19 16:30N 50°39' W 001°55'4 9.1
2017-Aug-19 16:00N 50°42' W 001°59'0 0.2
2017-Aug-19 15:30N 50°42' W 001°59'0 0.0
2017-Aug-19 14:53N 50°42' W 001°59'0 0.0
2017-Aug-19 13:17N 50°42' W 001°59'0 0.0
2017-Aug-19 11:58N 50°42' W 001°59'0 0.0
2017-Aug-19 11:22N 50°42' W 001°59'0 0.0
2017-Aug-19 10:58N 50°42' W 001°59'0 0.0
2017-Aug-19 10:28N 50°42' W 001°59'0 0.0
2017-Aug-19 09:57N 50°42' W 001°59'0 0.0
2017-Aug-19 09:21N 50°42' W 001°59'0 0.0
2017-Aug-19 09:00N 50°42' W 001°59'0 1.0
2017-Aug-19 08:30N 50°42' W 001°59'5 9.8
2017-Aug-19 08:00N 50°38' W 001°54'714.2
2017-Aug-19 07:30N 50°31' W 001°53'2316.0
2017-Aug-19 06:04N 50°09' W 001°58'116.0
2017-Aug-19 05:58N 50°07' W 001°58'5715.2
2017-Aug-19 02:12N 49°41' W 003°18'9414.1
2017-Aug-18 19:34N 48°52' W 005°20'114.6
2017-Aug-18 19:29N 48°51' W 005°22'714.5
2017-Aug-18 19:00N 48°47' W 005°30'3913.0
2017-Aug-18 15:58N 48°09' W 005°44'13014.0
2017-Aug-18 06:38N 46°07' W 004°36'17014.2
2017-Aug-17 18:41N 43°29' W 003°09'614.7
2017-Aug-17 18:17N 43°23' W 003°05'  
2017-Aug-15 00:34N 49°38' W 004°04'114.4
2017-Aug-15 00:29N 49°39' W 004°02'714.4
2017-Aug-15 00:00N 49°43' W 003°54'714.3
2017-Aug-14 23:30N 49°47' W 003°45'714.1
2017-Aug-14 23:00N 49°51' W 003°36'714.0
2017-Aug-14 22:30N 49°55' W 003°28'714.2
2017-Aug-14 22:00N 49°60' W 003°19'714.3
2017-Aug-14 21:30N 50°04' W 003°10'714.1
2017-Aug-14 21:00N 50°08' W 003°01'714.6
2017-Aug-14 20:30N 50°12' W 002°51'815.3
2017-Aug-14 20:00N 50°16' W 002°41'816.0
2017-Aug-14 19:30N 50°20' W 002°30'816.5
2017-Aug-14 19:00N 50°24' W 002°19'816.8
2017-Aug-14 18:30N 50°29' W 002°08'917.1
2017-Aug-14 18:00N 50°33' W 001°56'611.9
2017-Aug-14 17:31N 50°39' W 001°55'4 8.5
2017-Aug-14 17:00N 50°42' W 001°59'0 0.0
2017-Aug-14 16:25N 50°42' W 001°59'0 0.0
2017-Aug-14 15:49N 50°42' W 001°59'0 0.0
2017-Aug-14 15:19N 50°42' W 001°59'0 0.0
2017-Aug-14 14:55N 50°42' W 001°59'0 0.0
2017-Aug-14 14:07N 50°42' W 001°59'0 0.0
2017-Aug-14 14:00N 50°42' W 001°59'0 0.0
2017-Aug-14 13:30N 50°42' W 001°59'0 0.0
2017-Aug-14 13:00N 50°42' W 001°59'0 0.0
2017-Aug-14 12:24N 50°42' W 001°59'0 0.0
2017-Aug-14 12:00N 50°42' W 001°59'0 0.0
2017-Aug-14 11:29N 50°42' W 001°59'0 0.0
2017-Aug-14 10:59N 50°42' W 001°59'0 0.0
2017-Aug-14 10:23N 50°42' W 001°59'0 0.0
2017-Aug-14 09:59N 50°42' W 001°59'0 0.0
2017-Aug-14 09:28N 50°42' W 001°59'0 0.0
2017-Aug-14 09:00N 50°42' W 001°59'1 2.2
2017-Aug-14 08:30N 50°42' W 001°58'4 8.9
2017-Aug-14 08:00N 50°38' W 001°54'610.7
2017-Aug-14 07:29N 50°33' W 001°53'1013.9
2017-Aug-14 06:44N 50°22' W 001°52'413.8
2017-Aug-14 06:29N 50°19' W 001°52'612.5
2017-Aug-14 05:59N 50°13' W 001°56'612.8
2017-Aug-14 05:31N 50°08' W 001°60'4712.6
2017-Aug-14 01:46N 49°47' W 003°06'914.2
2017-Aug-14 01:09N 49°43' W 003°18'214.2
2017-Aug-14 01:00N 49°42' W 003°20'814.3
2017-Aug-14 00:26N 49°37' W 003°31'1014.4
2017-Aug-13 23:45N 49°32' W 003°44'414.4
2017-Aug-13 23:30N 49°30' W 003°48'714.5
2017-Aug-13 23:00N 49°26' W 003°58'714.9
2017-Aug-13 22:30N 49°23' W 004°08'815.0
2017-Aug-13 21:59N 49°19' W 004°18'715.0
2017-Aug-13 21:30N 49°15' W 004°28'815.2
2017-Aug-13 20:59N 49°11' W 004°38'915.5
2017-Aug-13 20:24N 49°07' W 004°51'915.5
2017-Aug-13 19:50N 49°03' W 005°02'615.6
2017-Aug-13 19:25N 48°59' W 005°11'715.5
2017-Aug-13 18:58N 48°56' W 005°20'715.4
2017-Aug-13 18:30N 48°52' W 005°29'8113.7
2017-Aug-13 12:36N 47°32' W 005°25'514.0
2017-Aug-13 12:14N 47°27' W 005°23'614.2
2017-Aug-13 11:51N 47°22' W 005°20'514.2
2017-Aug-13 11:30N 47°17' W 005°17'814.0
2017-Aug-13 10:56N 47°10' W 005°12'  
2017-Aug-11 04:47N 49°09' W 005°11'413.7
2017-Aug-11 04:28N 49°11' W 005°05'913.8
2017-Aug-11 03:48N 49°16' W 004°53'414.3
2017-Aug-11 03:30N 49°18' W 004°48'714.8
2017-Aug-11 03:00N 49°23' W 004°39'815.4
2017-Aug-11 02:30N 49°27' W 004°29'815.6
2017-Aug-11 01:59N 49°32' W 004°18'1015.9
2017-Aug-11 01:23N 49°37' W 004°07'816.0
2017-Aug-11 00:52N 49°42' W 003°57'615.7
2017-Aug-11 00:30N 49°46' W 003°50'915.6
2017-Aug-10 23:55N 49°51' W 003°38'615.0
2017-Aug-10 23:30N 49°55' W 003°30'714.4
2017-Aug-10 23:00N 49°59' W 003°22'713.7
2017-Aug-10 22:31N 50°02' W 003°12'713.3
2017-Aug-10 22:00N 50°05' W 003°02'613.0
2017-Aug-10 21:31N 50°08' W 002°54'712.8
2017-Aug-10 20:57N 50°11' W 002°44'612.8
2017-Aug-10 20:30N 50°14' W 002°36'3113.5
2017-Aug-10 18:12N 50°32' W 001°56'315.0
2017-Aug-10 18:00N 50°35' W 001°54'612.0
2017-Aug-10 17:30N 50°40' W 001°56'3 5.8
2017-Aug-10 17:00N 50°42' W 001°59'0 0.0
2017-Aug-10 16:10N 50°42' W 001°59'0 0.0
2017-Aug-10 15:58N 50°42' W 001°59'0 0.0
2017-Aug-10 15:28N 50°42' W 001°59'0 0.0
2017-Aug-10 14:58N 50°42' W 001°59'0 0.0
2017-Aug-10 13:45N 50°42' W 001°59'0 0.0
2017-Aug-10 13:27N 50°42' W 001°59'0 0.0
2017-Aug-10 12:51N 50°42' W 001°59'0 0.0
2017-Aug-10 12:27N 50°42' W 001°59'0 0.0
2017-Aug-10 11:51N 50°42' W 001°59'0 0.0
2017-Aug-10 11:26N 50°42' W 001°59'0 0.0
2017-Aug-10 10:14N 50°42' W 001°59'0 0.0
2017-Aug-10 09:44N 50°42' W 001°59'0 0.0
2017-Aug-10 09:26N 50°42' W 001°59'0 0.0
2017-Aug-10 09:00N 50°42' W 001°59'1 1.7
2017-Aug-10 08:30N 50°42' W 001°58'5 9.4
2017-Aug-10 08:00N 50°38' W 001°54'610.9
2017-Aug-10 07:29N 50°33' W 001°53'7611.4
2017-Aug-10 00:49N 49°41' W 003°20'413.4
2017-Aug-10 00:30N 49°39' W 003°25'2313.9
2017-Aug-09 22:52N 49°27' W 003°55'  
Track history (hours):
 
Tides and Currents Weather Stations Pressure Air Temp Water Temp Dewpoint Dewpoint Depression Visibility Wind Speed Wind Dir Waves Ship Positions

Mn Pelican

Last reported at 2017-Aug-19 22:30 UTC. Time now 2017-Aug-19 22:35 UTC.
Position N 49°56' W 003°27'.

Length 155 m; draft 6.3 m.

Type: Ship. MMSI: 228315700.

Date/timePositionNaut miles runAvg speedWind from/ knotsBaromVisibWave heightAir tempDewpointWater temp
2017-Aug-19 22:30N 49°56' W 003°27'815.3
2017-Aug-19 22:00N 50°00' W 003°18'815.0
2017-Aug-19 21:30N 50°04' W 003°08'714.4
2017-Aug-19 21:00N 50°08' W 002°58'713.8
2017-Aug-19 20:30N 50°11' W 002°49'713.3
2017-Aug-19 20:00N 50°14' W 002°39'612.6
2017-Aug-19 19:30N 50°18' W 002°31'2711.3
2017-Aug-19 17:04N 50°33' W 001°55'111.6
2017-Aug-19 17:00N 50°34' W 001°54'510.4
2017-Aug-19 16:30N 50°39' W 001°55'4 9.1
2017-Aug-19 16:00N 50°42' W 001°59'0 0.2
2017-Aug-19 15:30N 50°42' W 001°59'0 0.0
2017-Aug-19 14:53N 50°42' W 001°59'0 0.0
2017-Aug-19 13:17N 50°42' W 001°59'0 0.0
2017-Aug-19 11:58N 50°42' W 001°59'0 0.0
2017-Aug-19 11:22N 50°42' W 001°59'0 0.0
2017-Aug-19 10:58N 50°42' W 001°59'0 0.0
2017-Aug-19 10:28N 50°42' W 001°59'0 0.0
2017-Aug-19 09:57N 50°42' W 001°59'0 0.0
2017-Aug-19 09:21N 50°42' W 001°59'0 0.0
2017-Aug-19 09:00N 50°42' W 001°59'0 1.0
2017-Aug-19 08:30N 50°42' W 001°59'5 9.8
2017-Aug-19 08:00N 50°38' W 001°54'714.2
2017-Aug-19 07:30N 50°31' W 001°53'2316.0
2017-Aug-19 06:04N 50°09' W 001°58'116.0
2017-Aug-19 05:58N 50°07' W 001°58'5715.2
2017-Aug-19 02:12N 49°41' W 003°18'9414.1
2017-Aug-18 19:34N 48°52' W 005°20'114.6
2017-Aug-18 19:29N 48°51' W 005°22'714.5
2017-Aug-18 19:00N 48°47' W 005°30'3913.0
2017-Aug-18 15:58N 48°09' W 005°44'13014.0
2017-Aug-18 06:38N 46°07' W 004°36'17014.2
2017-Aug-17 18:41N 43°29' W 003°09'614.7
2017-Aug-17 18:17N 43°23' W 003°05'  
2017-Aug-15 00:34N 49°38' W 004°04'114.4
2017-Aug-15 00:29N 49°39' W 004°02'714.4
2017-Aug-15 00:00N 49°43' W 003°54'714.3
2017-Aug-14 23:30N 49°47' W 003°45'714.1
2017-Aug-14 23:00N 49°51' W 003°36'714.0
2017-Aug-14 22:30N 49°55' W 003°28'714.2
2017-Aug-14 22:00N 49°60' W 003°19'714.3
2017-Aug-14 21:30N 50°04' W 003°10'714.1
2017-Aug-14 21:00N 50°08' W 003°01'714.6
2017-Aug-14 20:30N 50°12' W 002°51'815.3
2017-Aug-14 20:00N 50°16' W 002°41'816.0
2017-Aug-14 19:30N 50°20' W 002°30'816.5
2017-Aug-14 19:00N 50°24' W 002°19'816.8
2017-Aug-14 18:30N 50°29' W 002°08'917.1
2017-Aug-14 18:00N 50°33' W 001°56'611.9
2017-Aug-14 17:31N 50°39' W 001°55'4 8.5
2017-Aug-14 17:00N 50°42' W 001°59'0 0.0
2017-Aug-14 16:25N 50°42' W 001°59'0 0.0
2017-Aug-14 15:49N 50°42' W 001°59'0 0.0
2017-Aug-14 15:19N 50°42' W 001°59'0 0.0
2017-Aug-14 14:55N 50°42' W 001°59'0 0.0
2017-Aug-14 14:07N 50°42' W 001°59'0 0.0
2017-Aug-14 14:00N 50°42' W 001°59'0 0.0
2017-Aug-14 13:30N 50°42' W 001°59'0 0.0
2017-Aug-14 13:00N 50°42' W 001°59'0 0.0
2017-Aug-14 12:24N 50°42' W 001°59'0 0.0
2017-Aug-14 12:00N 50°42' W 001°59'0 0.0
2017-Aug-14 11:29N 50°42' W 001°59'0 0.0
2017-Aug-14 10:59N 50°42' W 001°59'0 0.0
2017-Aug-14 10:23N 50°42' W 001°59'0 0.0
2017-Aug-14 09:59N 50°42' W 001°59'0 0.0
2017-Aug-14 09:28N 50°42' W 001°59'0 0.0
2017-Aug-14 09:00N 50°42' W 001°59'1 2.2
2017-Aug-14 08:30N 50°42' W 001°58'4 8.9
2017-Aug-14 08:00N 50°38' W 001°54'610.7
2017-Aug-14 07:29N 50°33' W 001°53'1013.9
2017-Aug-14 06:44N 50°22' W 001°52'413.8
2017-Aug-14 06:29N 50°19' W 001°52'612.5
2017-Aug-14 05:59N 50°13' W 001°56'612.8
2017-Aug-14 05:31N 50°08' W 001°60'4712.6
2017-Aug-14 01:46N 49°47' W 003°06'914.2
2017-Aug-14 01:09N 49°43' W 003°18'214.2
2017-Aug-14 01:00N 49°42' W 003°20'814.3
2017-Aug-14 00:26N 49°37' W 003°31'1014.4
2017-Aug-13 23:45N 49°32' W 003°44'414.4
2017-Aug-13 23:30N 49°30' W 003°48'714.5
2017-Aug-13 23:00N 49°26' W 003°58'714.9
2017-Aug-13 22:30N 49°23' W 004°08'815.0
2017-Aug-13 21:59N 49°19' W 004°18'715.0
2017-Aug-13 21:30N 49°15' W 004°28'815.2
2017-Aug-13 20:59N 49°11' W 004°38'915.5
2017-Aug-13 20:24N 49°07' W 004°51'915.5
2017-Aug-13 19:50N 49°03' W 005°02'615.6
2017-Aug-13 19:25N 48°59' W 005°11'715.5
2017-Aug-13 18:58N 48°56' W 005°20'715.4
2017-Aug-13 18:30N 48°52' W 005°29'8113.7
2017-Aug-13 12:36N 47°32' W 005°25'514.0
2017-Aug-13 12:14N 47°27' W 005°23'614.2
2017-Aug-13 11:51N 47°22' W 005°20'514.2
2017-Aug-13 11:30N 47°17' W 005°17'814.0
2017-Aug-13 10:56N 47°10' W 005°12'  
2017-Aug-11 04:47N 49°09' W 005°11'413.7
2017-Aug-11 04:28N 49°11' W 005°05'913.8
2017-Aug-11 03:48N 49°16' W 004°53'414.3
2017-Aug-11 03:30N 49°18' W 004°48'714.8
2017-Aug-11 03:00N 49°23' W 004°39'815.4
2017-Aug-11 02:30N 49°27' W 004°29'815.6
2017-Aug-11 01:59N 49°32' W 004°18'1015.9
2017-Aug-11 01:23N 49°37' W 004°07'816.0
2017-Aug-11 00:52N 49°42' W 003°57'615.7
2017-Aug-11 00:30N 49°46' W 003°50'915.6
2017-Aug-10 23:55N 49°51' W 003°38'615.0
2017-Aug-10 23:30N 49°55' W 003°30'714.4
2017-Aug-10 23:00N 49°59' W 003°22'713.7
2017-Aug-10 22:31N 50°02' W 003°12'713.3
2017-Aug-10 22:00N 50°05' W 003°02'613.0
2017-Aug-10 21:31N 50°08' W 002°54'712.8
2017-Aug-10 20:57N 50°11' W 002°44'612.8
2017-Aug-10 20:30N 50°14' W 002°36'3113.5
2017-Aug-10 18:12N 50°32' W 001°56'315.0
2017-Aug-10 18:00N 50°35' W 001°54'612.0
2017-Aug-10 17:30N 50°40' W 001°56'3 5.8
2017-Aug-10 17:00N 50°42' W 001°59'0 0.0
2017-Aug-10 16:10N 50°42' W 001°59'0 0.0
2017-Aug-10 15:58N 50°42' W 001°59'0 0.0
2017-Aug-10 15:28N 50°42' W 001°59'0 0.0
2017-Aug-10 14:58N 50°42' W 001°59'0 0.0
2017-Aug-10 13:45N 50°42' W 001°59'0 0.0
2017-Aug-10 13:27N 50°42' W 001°59'0 0.0
2017-Aug-10 12:51N 50°42' W 001°59'0 0.0
2017-Aug-10 12:27N 50°42' W 001°59'0 0.0
2017-Aug-10 11:51N 50°42' W 001°59'0 0.0
2017-Aug-10 11:26N 50°42' W 001°59'0 0.0
2017-Aug-10 10:14N 50°42' W 001°59'0 0.0
2017-Aug-10 09:44N 50°42' W 001°59'0 0.0
2017-Aug-10 09:26N 50°42' W 001°59'0 0.0
2017-Aug-10 09:00N 50°42' W 001°59'1 1.7
2017-Aug-10 08:30N 50°42' W 001°58'5 9.4
2017-Aug-10 08:00N 50°38' W 001°54'610.9
2017-Aug-10 07:29N 50°33' W 001°53'7611.4
2017-Aug-10 00:49N 49°41' W 003°20'413.4
2017-Aug-10 00:30N 49°39' W 003°25'2313.9
2017-Aug-09 22:52N 49°27' W 003°55'  

Dump ship's entire track history